Terminal Aerodrome Forecast
Issued by NWS

Home | Current Version | Previous Version | Text Only | Print | Product List | Glossary On
Versions: 1 2 3 4 5 6 7 8 9 10 11 12 13 14 15 16 17 18 19 20 21 22 23 24
960
FTUS44 KLZK 161135
TAFLIT
TAF
KLIT 161135Z 1612/1712 08007KT 1/2SM -DZ FG VV002 WS020/18040KT
      TEMPO 1612/1615 2SM -RA BR OVC005
     FM161500 12010G18KT 2SM -RA BR OVC005 WS020/18040KT
     FM161800 15010G18KT 4SM -RA BR OVC008 WS020/19040KT
     FM162100 19008G18KT 6SM -RA BR VCTS OVC010CB PROB30 1622/1702
      3SM -TSRA BR OVC010CB=

USA.gov is the U.S. government's official web portal to all federal, state and local government web resources and services.